Main page
METAR-TAF:

METAR-TAF

Airports :

Tarawa, Kiribati

Bonriki International Airport

latitude: 01-21N, longitude: 172-55E, elevation: 2 m

Current weather observation

The report was made 47 minutes ago, at 02:00 UTC
Wind 10 kt from the East
Temperature 30°C
Humidity 70%
Pressure 1008 hPa
Visibility 10 km or more
Scattered clouds at a height of 2000 ft

METAR: NGTA 300200Z 09010KT 9999 SCT020 30/24 Q1008

Time: 16:47 (02:47 UTC)

Forecast

The report was made 4 hours and 17 minutes ago, at 22:30 UTC
Forecast valid from 30 at 00 UTC to 30 at 24 UTC
Wind 15 kt from the East
Visibility 10 km or more
Scattered clouds at a height of 1800 ft
Broken clouds at a height of 10000 ft

TAF: NGTA 292230Z 3000/3024 08015KT 9999 SCT018 BKN100

Weather observations and forecasts of more than 4000 airports (METAR and TAF reports).

The available stations are represented by yellow and red dots on the map.

Hover mouse over dot to see the name of the station.

Then click to see weather observations and forecasts.

To change the map : click on the green buttons with a black cross to zoom in, on the green button with a dash to zoom out, or on the green arrows for adjacent maps.


METAR-TAF: